Time;durP1;ratioP1;P1;durP2;ratioP2;P2;SDS_P1;SDS_P2;PMS_P1;PMS_P2;Temp;Humidity;BMP_temperature;BMP_pressure;BME280_temperature;BME280_humidity;BME280_pressure;Samples;Min_cycle;Max_cycle;Signal;HPM_P1;HPM_P2
2023/02/20 00:02:23;;;;;;;15.90;6.32;;;7.60;99.90;;;;;;5024063;28;25076;-74
2023/02/20 00:04:49;;;;;;;12.10;6.18;;;7.60;99.90;;;;;;5026807;28;25063;-75
2023/02/20 00:07:15;;;;;;;18.00;6.22;;;7.60;99.90;;;;;;5022603;28;25146;-74
2023/02/20 00:09:40;;;;;;;21.33;7.35;;;7.70;99.90;;;;;;5009379;28;25062;-76
2023/02/20 00:12:06;;;;;;;11.57;5.93;;;7.70;99.90;;;;;;5027561;28;25110;-75
2023/02/20 00:14:31;;;;;;;15.20;7.22;;;7.70;99.90;;;;;;5026739;28;25082;-73
2023/02/20 00:16:57;;;;;;;17.85;6.57;;;7.70;99.90;;;;;;5042455;28;25115;-76
2023/02/20 00:19:23;;;;;;;22.88;6.65;;;7.60;99.90;;;;;;5055854;28;25042;-75
2023/02/20 00:21:50;;;;;;;18.05;7.45;;;7.60;99.90;;;;;;5046003;28;25082;-76
2023/02/20 00:24:17;;;;;;;22.02;7.68;;;7.60;99.90;;;;;;5035985;28;25063;-77
2023/02/20 00:26:50;;;;;;;15.07;7.15;;;7.60;99.90;;;;;;5032888;28;25080;-75
2023/02/20 00:29:18;;;;;;;12.93;7.10;;;7.60;99.90;;;;;;5034285;28;25065;-76
2023/02/20 00:31:50;;;;;;;20.50;8.48;;;7.60;99.90;;;;;;5034528;28;25051;-74
2023/02/20 00:34:15;;;;;;;18.20;6.75;;;7.70;99.90;;;;;;5039158;28;25065;-75
2023/02/20 00:36:41;;;;;;;17.23;7.05;;;7.60;99.90;;;;;;5036995;28;25078;-75
2023/02/20 00:39:06;;;;;;;16.48;8.07;;;7.70;99.90;;;;;;5035087;28;25059;-75
2023/02/20 00:41:32;;;;;;;20.42;7.90;;;7.70;99.90;;;;;;5035513;28;25076;-76
2023/02/20 00:43:57;;;;;;;19.35;7.55;;;7.60;99.90;;;;;;5032757;28;25072;-76
2023/02/20 00:46:23;;;;;;;22.65;8.25;;;7.70;99.90;;;;;;5028972;28;25087;-74
2023/02/20 00:48:49;;;;;;;17.77;8.15;;;7.70;99.90;;;;;;5027190;28;25065;-76
2023/02/20 00:51:16;;;;;;;31.05;9.50;;;7.70;99.90;;;;;;5019196;28;25064;-74
2023/02/20 00:53:41;;;;;;;18.88;7.93;;;7.70;99.90;;;;;;5028116;28;25099;-74
2023/02/20 00:56:07;;;;;;;17.42;8.90;;;7.70;99.90;;;;;;5029489;28;25080;-74
2023/02/20 00:58:32;;;;;;;23.33;9.20;;;7.70;99.90;;;;;;5025620;28;25071;-75
2023/02/20 01:00:58;;;;;;;21.92;9.18;;;7.70;99.90;;;;;;5029914;28;25109;-73
2023/02/20 01:03:24;;;;;;;21.58;8.82;;;7.70;99.90;;;;;;5027638;28;24847;-74
2023/02/20 01:05:49;;;;;;;21.85;8.65;;;7.80;99.90;;;;;;5026603;28;25155;-75
2023/02/20 01:08:15;;;;;;;22.05;9.20;;;7.80;99.90;;;;;;5027786;28;25141;-76
2023/02/20 01:10:41;;;;;;;19.27;9.20;;;7.90;99.90;;;;;;5032115;28;25080;-74
2023/02/20 01:13:06;;;;;;;25.50;9.75;;;7.90;99.90;;;;;;5022097;28;25055;-75
2023/02/20 01:15:33;;;;;;;26.02;10.35;;;8.00;99.90;;;;;;5043102;28;25078;-75
2023/02/20 01:17:59;;;;;;;27.00;11.02;;;8.00;99.90;;;;;;5027867;28;25068;-74
2023/02/20 01:20:24;;;;;;;27.73;11.43;;;8.10;99.90;;;;;;5043610;28;25071;-74
2023/02/20 01:22:50;;;;;;;18.80;10.32;;;8.10;99.90;;;;;;5044879;28;25117;-74
2023/02/20 01:25:15;;;;;;;36.45;13.35;;;8.20;99.90;;;;;;5041788;28;25099;-74
2023/02/20 01:27:41;;;;;;;26.05;12.57;;;8.30;99.90;;;;;;5040325;28;25068;-74
2023/02/20 01:30:08;;;;;;;28.98;12.45;;;8.30;99.90;;;;;;5044904;28;25089;-76
2023/02/20 01:32:33;;;;;;;32.72;13.32;;;8.40;99.90;;;;;;5045942;28;25105;-72
2023/02/20 01:34:59;;;;;;;27.23;12.55;;;8.40;99.90;;;;;;5035229;28;25050;-76
2023/02/20 01:37:24;;;;;;;32.08;14.27;;;8.50;99.90;;;;;;5032947;28;25108;-75
2023/02/20 01:39:50;;;;;;;44.00;14.30;;;8.50;99.90;;;;;;5029036;28;25069;-77
2023/02/20 01:42:22;;;;;;;33.67;13.55;;;8.60;99.90;;;;;;5017738;28;25065;-74
2023/02/20 01:44:48;;;;;;;37.90;15.10;;;8.60;99.90;;;;;;5018217;28;25063;-78
2023/02/20 01:47:20;;;;;;;35.90;14.93;;;8.60;99.90;;;;;;5030096;28;25155;-73
2023/02/20 01:49:58;;;;;;;43.67;16.33;;;8.60;99.90;;;;;;5032305;28;25069;-77
2023/02/20 01:52:29;;;;;;;38.38;15.02;;;8.70;99.90;;;;;;5030150;28;25258;-75
2023/02/20 01:55:03;;;;;;;38.25;16.27;;;8.70;99.90;;;;;;5029948;28;25084;-73
2023/02/20 01:57:32;;;;;;;38.13;16.02;;;8.80;99.90;;;;;;5028651;28;25075;-73
2023/02/20 02:00:08;;;;;;;38.22;15.85;;;8.90;99.90;;;;;;5029319;28;25063;-78
2023/02/20 02:02:38;;;;;;;47.40;15.27;;;8.90;99.90;;;;;;5041458;28;25079;-75
2023/02/20 02:05:04;;;;;;;39.13;16.42;;;8.90;99.90;;;;;;5037660;28;25108;-75
2023/02/20 02:07:30;;;;;;;33.15;15.10;;;9.00;99.90;;;;;;5033566;28;25138;-74
2023/02/20 02:10:03;;;;;;;39.80;14.85;;;9.00;99.90;;;;;;5032594;28;25067;-73
2023/02/20 02:12:29;;;;;;;34.70;16.15;;;9.00;99.90;;;;;;5014809;28;25074;-75
2023/02/20 02:14:54;;;;;;;44.90;15.07;;;9.00;99.90;;;;;;5028072;28;25077;-74
2023/02/20 02:17:26;;;;;;;39.08;16.75;;;9.10;99.90;;;;;;5027052;28;25056;-74
2023/02/20 02:20:12;;;;;;;39.72;16.67;;;9.10;99.90;;;;;;5028890;28;25079;-75
2023/02/20 02:22:49;;;;;;;47.08;16.50;;;9.20;99.90;;;;;;5031076;28;25048;-74
2023/02/20 02:25:47;;;;;;;40.45;16.80;;;9.20;99.90;;;;;;5027965;28;25079;-75
2023/02/20 02:28:56;;;;;;;41.40;15.07;;;9.30;99.90;;;;;;5032272;28;25080;-74
2023/02/20 02:31:49;;;;;;;38.70;16.30;;;9.30;99.90;;;;;;5023020;28;25288;-75
2023/02/20 02:34:56;;;;;;;44.25;17.42;;;9.30;99.90;;;;;;5026317;28;25057;-75
2023/02/20 02:37:33;;;;;;;44.22;17.27;;;9.40;99.90;;;;;;5024824;28;25089;-73
2023/02/20 02:40:19;;;;;;;42.13;18.30;;;9.40;99.90;;;;;;5029796;28;25066;-75
2023/02/20 02:42:49;;;;;;;46.83;18.48;;;9.40;99.90;;;;;;5027404;28;25071;-76
2023/02/20 02:45:18;;;;;;;50.25;17.38;;;9.50;99.90;;;;;;5029064;28;25060;-74
2023/02/20 02:48:06;;;;;;;51.25;17.55;;;9.50;99.90;;;;;;5008486;28;25162;-78
2023/02/20 02:50:35;;;;;;;63.13;19.38;;;9.50;99.90;;;;;;4999331;28;25102;-74
2023/02/20 02:53:02;;;;;;;41.78;19.40;;;9.60;99.90;;;;;;4997334;28;25046;-73
2023/02/20 02:55:30;;;;;;;49.75;19.30;;;9.70;99.90;;;;;;5017670;28;25071;-76
2023/02/20 02:57:56;;;;;;;47.83;18.83;;;9.70;99.90;;;;;;5023340;28;25079;-76
2023/02/20 03:00:27;;;;;;;49.60;18.85;;;9.70;99.90;;;;;;5021288;28;25073;-75
2023/02/20 03:03:03;;;;;;;48.72;18.52;;;9.70;99.90;;;;;;5016944;28;25074;-75
2023/02/20 03:05:45;;;;;;;43.97;17.02;;;9.80;99.90;;;;;;5019877;28;25104;-77
2023/02/20 03:08:29;;;;;;;41.63;17.08;;;9.80;99.90;;;;;;5021195;28;25076;-78
2023/02/20 03:11:00;;;;;;;46.03;17.95;;;9.80;99.90;;;;;;5006073;28;25145;-74
2023/02/20 03:16:15;;;;;;;46.65;17.08;;;9.90;99.90;;;;;;5021416;28;25064;-77
2023/02/20 03:18:40;;;;;;;42.72;16.20;;;10.00;99.90;;;;;;5024958;28;25147;-78
2023/02/20 03:21:17;;;;;;;43.58;17.80;;;10.00;99.90;;;;;;5028698;28;25131;-72
2023/02/20 03:23:48;;;;;;;39.42;17.40;;;10.00;99.90;;;;;;5031690;28;25074;-74
2023/02/20 03:26:21;;;;;;;44.97;17.67;;;10.00;99.90;;;;;;5007900;28;25050;-76
2023/02/20 03:29:02;;;;;;;48.50;17.63;;;10.00;99.90;;;;;;5028878;28;25104;-73
2023/02/20 03:31:34;;;;;;;39.88;18.17;;;10.10;99.90;;;;;;5027324;28;25096;-75
2023/02/20 03:45:27;;;;;;;51.08;19.77;;;10.20;99.90;;;;;;5025399;28;25055;-74
2023/02/20 03:47:59;;;;;;;43.55;20.80;;;10.20;99.90;;;;;;5032632;28;25052;-75
2023/02/20 03:53:10;;;;;;;49.67;16.85;;;10.30;99.90;;;;;;5037013;28;25116;-76
2023/02/20 03:55:35;;;;;;;53.05;19.00;;;10.40;99.90;;;;;;5032186;28;25145;-78
2023/02/20 03:58:05;;;;;;;47.92;18.02;;;10.40;99.90;;;;;;5009540;28;25146;-74
2023/02/20 04:00:37;;;;;;;53.80;18.90;;;10.40;99.90;;;;;;5029977;28;25062;-75
2023/02/20 04:03:17;;;;;;;51.92;18.58;;;10.50;99.90;;;;;;5029988;28;25087;-76
2023/02/20 04:05:47;;;;;;;38.33;15.52;;;10.50;99.90;;;;;;5027401;28;25066;-76
2023/02/20 04:08:30;;;;;;;46.28;17.08;;;10.50;99.90;;;;;;5031885;28;25060;-78
2023/02/20 04:11:03;;;;;;;50.88;16.77;;;10.50;99.90;;;;;;5028153;28;25071;-75
2023/02/20 04:13:31;;;;;;;47.25;18.15;;;10.60;99.90;;;;;;5025282;28;25129;-76
2023/02/20 04:16:00;;;;;;;39.30;16.42;;;10.50;99.90;;;;;;5031375;28;25072;-78
2023/02/20 04:18:27;;;;;;;56.42;19.13;;;10.60;99.90;;;;;;5012300;28;25072;-77
2023/02/20 04:20:55;;;;;;;41.58;17.33;;;10.60;99.90;;;;;;5031811;28;25078;-74
2023/02/20 04:23:24;;;;;;;37.30;16.95;;;10.60;99.90;;;;;;5031897;28;25063;-75
2023/02/20 04:26:01;;;;;;;46.90;18.10;;;10.60;99.90;;;;;;5030946;28;25092;-74
2023/02/20 04:28:27;;;;;;;44.28;16.10;;;10.60;99.90;;;;;;5029929;28;25154;-75
2023/02/20 04:30:53;;;;;;;37.78;15.70;;;10.60;99.90;;;;;;5032066;28;25068;-76
2023/02/20 04:33:19;;;;;;;39.30;15.85;;;10.60;99.90;;;;;;5033842;28;25088;-75
2023/02/20 04:35:45;;;;;;;40.42;15.63;;;10.70;99.90;;;;;;5017036;28;25063;-75
2023/02/20 04:38:11;;;;;;;43.88;14.05;;;10.80;99.90;;;;;;5037579;28;25061;-75
2023/02/20 04:40:37;;;;;;;38.38;15.05;;;10.70;99.90;;;;;;5030560;28;25064;-75
2023/02/20 04:43:03;;;;;;;43.67;15.00;;;10.80;99.90;;;;;;5040939;28;25103;-77
2023/02/20 04:45:28;;;;;;;38.03;14.25;;;10.80;99.90;;;;;;5038296;28;25126;-75
2023/02/20 04:47:54;;;;;;;41.92;13.60;;;10.80;99.90;;;;;;5031592;28;25073;-77
2023/02/20 04:50:25;;;;;;;40.08;14.63;;;10.80;99.90;;;;;;5032540;28;25054;-76
2023/02/20 04:52:51;;;;;;;44.95;13.60;;;10.80;99.90;;;;;;5034821;28;25069;-75
2023/02/20 04:55:17;;;;;;;36.17;12.43;;;10.80;99.90;;;;;;5036786;28;25085;-77
2023/02/20 04:57:42;;;;;;;29.15;11.05;;;10.80;99.90;;;;;;5037724;28;25062;-75
2023/02/20 05:00:09;;;;;;;29.05;11.45;;;10.80;99.90;;;;;;5033672;28;25145;-77
2023/02/20 05:02:37;;;;;;;35.72;10.65;;;10.80;99.90;;;;;;5037795;28;25084;-78
2023/02/20 05:05:03;;;;;;;31.98;9.77;;;10.70;99.90;;;;;;5020425;28;25086;-75
2023/02/20 05:07:29;;;;;;;25.55;9.05;;;10.70;99.90;;;;;;5034988;28;25108;-76
2023/02/20 05:09:54;;;;;;;32.70;8.95;;;10.60;99.90;;;;;;5030685;28;25094;-77
2023/02/20 05:12:20;;;;;;;34.35;9.88;;;10.60;99.90;;;;;;5033060;28;25072;-75
2023/02/20 05:14:45;;;;;;;35.10;9.30;;;10.50;99.90;;;;;;5023715;28;25093;-76
2023/02/20 05:17:11;;;;;;;26.55;8.80;;;10.50;99.90;;;;;;5033614;28;25058;-75
2023/02/20 05:19:37;;;;;;;30.50;8.10;;;10.40;99.90;;;;;;5030476;28;25068;-78
2023/02/20 05:22:17;;;;;;;20.85;8.05;;;10.40;99.90;;;;;;5031720;28;25053;-76
2023/02/20 05:24:44;;;;;;;36.60;7.72;;;10.40;99.90;;;;;;5028458;28;25092;-77
2023/02/20 05:27:13;;;;;;;26.25;8.45;;;10.30;99.90;;;;;;5034767;28;25051;-76
2023/02/20 05:29:43;;;;;;;24.52;6.97;;;10.30;99.90;;;;;;5035148;28;25062;-74
2023/02/20 05:32:09;;;;;;;28.65;8.98;;;10.20;99.90;;;;;;5032238;28;25135;-75
2023/02/20 05:34:34;;;;;;;30.40;7.25;;;10.10;99.90;;;;;;5031327;28;25102;-76
2023/02/20 05:37:00;;;;;;;29.50;8.93;;;10.10;99.90;;;;;;5033784;28;25064;-76
2023/02/20 05:39:25;;;;;;;23.02;8.20;;;10.00;99.90;;;;;;5033278;28;25171;-77
2023/02/20 05:41:51;;;;;;;26.63;7.35;;;10.00;99.90;;;;;;5032096;28;25110;-76
2023/02/20 05:44:16;;;;;;;17.55;7.28;;;10.00;99.90;;;;;;5031880;28;25068;-75
2023/02/20 05:46:42;;;;;;;20.58;6.82;;;9.90;99.90;;;;;;5014121;28;25068;-78
2023/02/20 05:49:09;;;;;;;26.92;7.00;;;9.90;99.90;;;;;;5028605;28;25088;-77
2023/02/20 05:51:34;;;;;;;26.33;7.15;;;9.80;99.90;;;;;;5029380;28;25150;-75
2023/02/20 05:54:00;;;;;;;20.05;6.10;;;9.80;99.90;;;;;;5033609;28;25073;-78
2023/02/20 05:56:26;;;;;;;27.77;6.30;;;9.90;99.90;;;;;;5027559;28;25074;-76
2023/02/20 05:58:52;;;;;;;24.23;6.25;;;9.80;99.90;;;;;;5035508;28;25073;-77
2023/02/20 06:01:23;;;;;;;26.35;7.15;;;9.90;99.90;;;;;;5030152;28;25065;-75
2023/02/20 06:03:49;;;;;;;28.63;6.97;;;9.80;99.90;;;;;;5009324;28;25147;-75
2023/02/20 06:06:16;;;;;;;33.97;6.95;;;9.80;99.90;;;;;;5027310;28;25079;-75
2023/02/20 06:08:41;;;;;;;19.73;6.70;;;9.80;99.90;;;;;;5018616;28;25106;-74
2023/02/20 06:11:09;;;;;;;23.00;6.68;;;9.80;99.90;;;;;;5030926;28;25166;-75
2023/02/20 06:13:35;;;;;;;33.67;7.97;;;9.90;99.90;;;;;;5023875;28;25060;-76
2023/02/20 06:16:00;;;;;;;27.20;7.63;;;9.80;99.90;;;;;;5023279;28;25113;-75
2023/02/20 06:18:26;;;;;;;20.88;6.80;;;9.90;99.90;;;;;;5018842;28;25160;-76
2023/02/20 06:20:51;;;;;;;24.15;6.95;;;9.90;99.90;;;;;;5019065;28;25146;-76
2023/02/20 06:23:17;;;;;;;21.17;6.07;;;9.80;99.90;;;;;;5025693;28;25060;-74
2023/02/20 06:25:42;;;;;;;30.05;6.57;;;9.90;99.90;;;;;;5029560;28;25079;-76
2023/02/20 06:28:08;;;;;;;42.20;9.13;;;9.80;99.90;;;;;;5031291;28;25061;-74
2023/02/20 06:30:34;;;;;;;22.75;5.82;;;9.80;99.90;;;;;;5022763;28;25141;-74
2023/02/20 06:32:59;;;;;;;25.17;7.53;;;9.90;99.90;;;;;;5024337;28;25149;-75
2023/02/20 06:35:25;;;;;;;23.30;6.03;;;9.90;99.90;;;;;;5020078;28;25161;-74
2023/02/20 06:37:50;;;;;;;25.27;6.82;;;9.90;99.90;;;;;;5012172;28;25135;-75
2023/02/20 06:40:16;;;;;;;24.40;6.15;;;9.90;99.90;;;;;;5014951;28;25078;-76
2023/02/20 06:42:41;;;;;;;30.33;7.07;;;9.90;99.90;;;;;;5016346;28;25073;-75
2023/02/20 06:45:07;;;;;;;24.48;6.82;;;9.90;99.90;;;;;;5021748;28;25064;-77
2023/02/20 06:47:32;;;;;;;16.50;6.45;;;9.90;99.90;;;;;;5017013;28;25049;-77
2023/02/20 06:49:58;;;;;;;28.50;7.88;;;9.90;99.90;;;;;;5013960;28;25088;-78
2023/02/20 06:52:23;;;;;;;15.55;6.63;;;10.00;99.90;;;;;;5037626;28;25071;-77
2023/02/20 06:54:51;;;;;;;25.33;8.30;;;10.00;99.90;;;;;;5039898;28;25081;-76
2023/02/20 06:57:17;;;;;;;23.05;7.75;;;10.00;99.90;;;;;;5033374;28;25153;-77
2023/02/20 06:59:46;;;;;;;24.88;7.97;;;10.00;99.90;;;;;;5018697;28;25126;-75
2023/02/20 07:02:13;;;;;;;19.85;7.65;;;10.10;99.90;;;;;;5026571;28;25081;-73
2023/02/20 07:04:38;;;;;;;27.80;9.68;;;10.10;99.90;;;;;;5045170;28;25049;-76
2023/02/20 07:07:04;;;;;;;29.10;8.80;;;10.00;99.90;;;;;;5031685;28;25080;-78
2023/02/20 07:09:30;;;;;;;19.23;8.50;;;10.10;99.90;;;;;;5050006;28;25087;-77
2023/02/20 07:11:56;;;;;;;24.85;7.97;;;10.10;99.90;;;;;;5029979;28;25075;-76
2023/02/20 07:14:22;;;;;;;26.85;9.13;;;10.10;99.90;;;;;;5006854;28;25069;-75
2023/02/20 07:16:47;;;;;;;40.47;8.70;;;10.10;99.90;;;;;;5025479;28;25087;-77
2023/02/20 07:19:13;;;;;;;31.80;8.80;;;10.20;99.90;;;;;;5023850;28;25076;-79
2023/02/20 07:21:39;;;;;;;23.67;7.78;;;10.20;99.90;;;;;;5026349;28;25118;-75
2023/02/20 07:24:05;;;;;;;27.55;7.78;;;10.20;99.90;;;;;;5021895;28;25097;-75
2023/02/20 07:26:30;;;;;;;16.50;7.47;;;10.20;99.90;;;;;;5024193;28;25067;-76
2023/02/20 07:28:57;;;;;;;27.65;8.35;;;10.20;99.90;;;;;;5020523;28;25056;-78
2023/02/20 07:31:23;;;;;;;22.58;7.80;;;10.20;99.90;;;;;;5006897;28;25063;-74
2023/02/20 07:33:49;;;;;;;22.45;7.85;;;10.20;99.90;;;;;;5022577;28;25064;-75
2023/02/20 07:36:15;;;;;;;29.45;7.97;;;10.30;99.90;;;;;;5025939;28;25131;-73
2023/02/20 07:38:41;;;;;;;23.50;7.10;;;10.30;99.90;;;;;;5020186;28;25050;-75
2023/02/20 07:41:07;;;;;;;18.48;6.57;;;10.30;99.90;;;;;;5024414;28;25079;-75
2023/02/20 07:43:33;;;;;;;26.42;9.07;;;10.30;99.90;;;;;;5017979;28;25069;-78
2023/02/20 07:45:58;;;;;;;36.65;6.72;;;10.30;99.90;;;;;;5011736;28;25062;-76
2023/02/20 07:48:24;;;;;;;28.02;6.88;;;10.40;99.90;;;;;;5015249;28;25068;-74
2023/02/20 07:50:51;;;;;;;22.17;7.18;;;10.30;99.90;;;;;;5025797;28;25073;-78
2023/02/20 07:53:19;;;;;;;28.83;7.90;;;10.40;99.90;;;;;;5015482;28;25075;-76
2023/02/20 07:55:45;;;;;;;29.38;8.05;;;10.40;99.90;;;;;;5025791;28;25070;-77
2023/02/20 07:58:10;;;;;;;24.77;7.55;;;10.40;99.90;;;;;;5021034;28;25070;-77
2023/02/20 08:00:36;;;;;;;26.30;9.18;;;10.40;99.90;;;;;;5025323;28;25106;-77
2023/02/20 08:03:02;;;;;;;17.67;6.53;;;10.40;99.90;;;;;;5016450;28;25062;-76
2023/02/20 08:05:27;;;;;;;27.50;6.65;;;10.40;99.90;;;;;;5023211;28;25055;-77
2023/02/20 08:07:53;;;;;;;19.67;6.60;;;10.50;99.90;;;;;;5026101;28;25065;-78
2023/02/20 08:10:23;;;;;;;24.30;7.80;;;10.50;99.90;;;;;;5024079;28;25144;-78
2023/02/20 08:12:48;;;;;;;23.85;6.38;;;10.50;99.90;;;;;;5026075;28;25053;-74
2023/02/20 08:15:14;;;;;;;19.23;5.40;;;10.50;99.90;;;;;;5026992;28;25106;-77
2023/02/20 08:17:40;;;;;;;24.30;6.70;;;10.50;99.90;;;;;;5020318;28;25158;-77
2023/02/20 08:20:07;;;;;;;24.10;6.28;;;10.50;99.90;;;;;;5019606;28;25067;-76
2023/02/20 08:22:33;;;;;;;18.65;5.75;;;10.60;99.90;;;;;;5026630;28;25126;-77
2023/02/20 08:24:59;;;;;;;22.23;5.88;;;10.60;99.90;;;;;;5018635;28;25089;-75
2023/02/20 08:27:26;;;;;;;12.90;5.68;;;10.60;99.90;;;;;;5024609;28;25145;-76
2023/02/20 08:29:52;;;;;;;32.97;6.20;;;10.50;99.90;;;;;;5015660;28;25098;-73
2023/02/20 08:32:17;;;;;;;23.10;5.50;;;10.60;99.90;;;;;;5014593;28;25096;-76
2023/02/20 08:34:43;;;;;;;22.17;5.43;;;10.60;99.90;;;;;;5012784;28;25097;-78
2023/02/20 08:37:09;;;;;;;23.50;5.78;;;10.60;99.90;;;;;;5011315;28;25075;-79
2023/02/20 08:39:35;;;;;;;18.55;6.30;;;10.60;99.90;;;;;;4993939;28;25059;-75
2023/02/20 08:42:01;;;;;;;21.33;6.03;;;10.60;99.90;;;;;;5025222;28;25182;-77
2023/02/20 08:44:26;;;;;;;19.77;6.97;;;10.60;99.90;;;;;;5028449;28;25091;-76
2023/02/20 08:46:52;;;;;;;23.60;5.45;;;10.50;99.90;;;;;;5027846;28;25061;-76
2023/02/20 08:49:19;;;;;;;25.55;5.78;;;10.60;99.90;;;;;;5021388;28;25105;-77
2023/02/20 08:51:47;;;;;;;30.20;8.27;;;10.60;99.90;;;;;;5028596;28;25101;-74
2023/02/20 08:54:14;;;;;;;27.90;6.88;;;10.50;99.90;;;;;;5028066;28;25058;-77
2023/02/20 08:56:41;;;;;;;19.02;5.93;;;10.60;99.90;;;;;;5017420;28;25063;-74
2023/02/20 08:59:07;;;;;;;24.40;6.63;;;10.60;99.90;;;;;;5024028;28;25157;-75
2023/02/20 09:01:34;;;;;;;19.95;5.78;;;10.50;99.90;;;;;;5032154;28;25129;-76
2023/02/20 09:04:01;;;;;;;22.58;7.57;;;10.60;99.90;;;;;;5027423;28;25056;-76
2023/02/20 09:06:27;;;;;;;26.20;6.68;;;10.60;99.90;;;;;;5028259;28;25142;-76
2023/02/20 09:08:54;;;;;;;20.65;5.70;;;10.60;99.90;;;;;;5024572;28;25063;-75
2023/02/20 09:11:20;;;;;;;17.13;6.45;;;10.60;99.90;;;;;;5032550;28;25108;-77
2023/02/20 09:13:48;;;;;;;21.48;6.57;;;10.70;99.90;;;;;;5020488;28;25061;-75
2023/02/20 09:16:15;;;;;;;23.55;6.38;;;10.70;99.90;;;;;;5028164;28;25057;-76
2023/02/20 09:18:42;;;;;;;34.63;7.93;;;10.70;99.90;;;;;;5025739;28;25057;-77
2023/02/20 09:21:10;;;;;;;16.38;6.53;;;10.60;99.90;;;;;;5028077;28;25074;-76
2023/02/20 09:23:36;;;;;;;34.35;9.05;;;10.70;99.90;;;;;;5010560;28;25067;-78
2023/02/20 09:26:02;;;;;;;26.98;7.03;;;10.60;99.90;;;;;;5032047;28;25074;-76
2023/02/20 09:28:28;;;;;;;19.42;7.40;;;10.60;99.90;;;;;;5034219;28;25068;-77
2023/02/20 09:30:56;;;;;;;21.80;7.95;;;10.70;99.90;;;;;;5028129;28;25062;-74
2023/02/20 09:33:22;;;;;;;17.15;7.40;;;10.70;99.90;;;;;;5024264;28;25084;-76
2023/02/20 09:35:48;;;;;;;19.95;7.82;;;10.70;99.90;;;;;;5030564;28;25111;-74
2023/02/20 09:38:14;;;;;;;22.20;7.55;;;10.60;99.90;;;;;;5028228;28;25182;-77
2023/02/20 09:40:41;;;;;;;19.20;7.65;;;10.70;99.90;;;;;;5021305;28;25070;-76
2023/02/20 09:43:14;;;;;;;26.95;7.97;;;10.70;99.90;;;;;;5019688;28;25074;-74
2023/02/20 09:45:48;;;;;;;24.80;8.95;;;10.80;99.90;;;;;;5018568;28;25058;-75
2023/02/20 09:48:34;;;;;;;19.23;7.70;;;10.80;99.90;;;;;;5026913;28;25066;-75
2023/02/20 09:51:05;;;;;;;31.80;8.77;;;10.70;99.90;;;;;;5020572;28;25119;-75
2023/02/20 09:53:39;;;;;;;21.42;7.53;;;10.70;99.90;;;;;;5021026;28;25048;-76
2023/02/20 09:56:11;;;;;;;15.85;7.13;;;10.80;99.90;;;;;;5026283;28;25070;-75
2023/02/20 09:58:45;;;;;;;22.95;7.53;;;10.80;99.90;;;;;;5008997;28;25073;-76
2023/02/20 10:01:13;;;;;;;20.73;8.85;;;10.80;99.90;;;;;;5026224;28;25069;-76
2023/02/20 10:03:46;;;;;;;20.90;8.00;;;10.80;99.90;;;;;;5022140;28;25087;-76
2023/02/20 10:06:17;;;;;;;20.20;7.68;;;10.80;99.90;;;;;;5019678;28;25054;-75
2023/02/20 10:08:43;;;;;;;15.88;7.05;;;10.80;99.90;;;;;;5024619;28;25076;-76
2023/02/20 10:11:23;;;;;;;22.95;7.93;;;10.80;99.90;;;;;;5026814;28;25064;-75
2023/02/20 10:14:06;;;;;;;17.35;7.57;;;10.70;99.90;;;;;;5020896;28;25061;-77
2023/02/20 10:16:56;;;;;;;15.55;6.90;;;10.70;99.90;;;;;;5023301;28;25146;-76
2023/02/20 10:19:31;;;;;;;17.48;7.28;;;10.70;99.90;;;;;;5024323;28;25085;-76
2023/02/20 10:22:04;;;;;;;16.45;6.53;;;10.60;99.90;;;;;;5028391;28;25302;-76
2023/02/20 10:25:20;;;;;;;19.90;7.05;;;10.60;99.90;;;;;;5028816;28;25072;-76
2023/02/20 10:28:03;;;;;;;17.15;6.13;;;10.50;99.90;;;;;;5002964;28;25080;-76
2023/02/20 10:30:34;;;;;;;15.80;6.78;;;10.60;99.90;;;;;;5027761;28;25077;-77
2023/02/20 10:33:08;;;;;;;12.32;5.57;;;10.50;99.90;;;;;;5025218;28;25070;-78
2023/02/20 10:36:05;;;;;;;9.77;5.05;;;10.60;99.90;;;;;;5029016;28;25161;-76
2023/02/20 10:38:39;;;;;;;15.70;6.30;;;10.60;99.90;;;;;;5018597;28;25149;-76
2023/02/20 10:41:23;;;;;;;16.10;6.47;;;10.60;99.90;;;;;;5016202;28;25173;-76
2023/02/20 10:44:09;;;;;;;12.25;5.47;;;10.60;99.90;;;;;;5010394;28;25161;-76
2023/02/20 10:46:48;;;;;;;11.82;5.43;;;10.60;99.90;;;;;;5024576;28;25085;-75
2023/02/20 10:49:19;;;;;;;8.50;4.35;;;10.60;99.90;;;;;;5007933;28;25092;-78
2023/02/20 10:51:49;;;;;;;11.57;4.47;;;10.50;99.90;;;;;;5005587;28;25066;-76
2023/02/20 10:54:28;;;;;;;12.20;4.55;;;10.50;99.90;;;;;;5012847;28;25073;-75
2023/02/20 10:57:01;;;;;;;11.23;4.20;;;10.50;99.90;;;;;;5016913;28;25050;-78
2023/02/20 10:59:35;;;;;;;5.43;2.97;;;10.50;99.90;;;;;;5021315;28;25118;-77
2023/02/20 11:02:05;;;;;;;8.15;3.92;;;10.50;99.90;;;;;;5017948;28;25095;-75
2023/02/20 11:04:36;;;;;;;13.35;5.03;;;10.50;99.90;;;;;;5024392;28;25067;-76
2023/02/20 11:07:08;;;;;;;10.90;3.95;;;10.50;99.90;;;;;;5016591;28;25073;-76
2023/02/20 11:09:34;;;;;;;8.68;3.50;;;10.50;99.90;;;;;;5018343;28;25073;-78
2023/02/20 11:12:00;;;;;;;5.95;3.67;;;10.50;99.90;;;;;;5021598;28;25135;-76
2023/02/20 11:14:45;;;;;;;14.60;4.00;;;10.50;99.90;;;;;;5020998;28;25089;-77
2023/02/20 11:17:18;;;;;;;17.00;3.70;;;10.40;99.90;;;;;;5013150;28;25089;-74
2023/02/20 11:19:45;;;;;;;;;;;10.50;99.90;;;;;;5011539;28;25078;-76
2023/02/20 11:22:11;;;;;;;8.23;3.42;;;10.50;99.90;;;;;;5022232;28;24077;-77
2023/02/20 11:24:39;;;;;;;8.50;3.10;;;10.50;99.90;;;;;;5025166;28;25056;-75
2023/02/20 11:27:17;;;;;;;10.30;3.30;;;10.50;99.90;;;;;;5028158;28;25061;-77
2023/02/20 11:29:52;;;;;;;12.52;3.35;;;10.50;99.90;;;;;;5034450;28;25086;-76
2023/02/20 11:32:24;;;;;;;7.53;3.38;;;10.50;99.90;;;;;;5009666;28;25043;-75
2023/02/20 11:35:25;;;;;;;10.15;3.03;;;10.50;99.90;;;;;;5029847;28;25076;-73
2023/02/20 11:38:22;;;;;;;7.75;3.80;;;10.50;99.90;;;;;;5003138;28;25100;-77
2023/02/20 11:40:55;;;;;;;10.98;3.20;;;10.50;99.90;;;;;;5020267;28;25145;-75
2023/02/20 11:43:23;;;;;;;8.77;3.38;;;10.50;99.90;;;;;;5025581;28;25080;-78
2023/02/20 11:45:53;;;;;;;18.38;3.22;;;10.50;99.90;;;;;;5021481;28;25070;-76
2023/02/20 11:48:20;;;;;;;6.97;3.45;;;10.50;99.90;;;;;;5031972;28;25113;-76
2023/02/20 11:50:53;;;;;;;10.57;3.47;;;10.50;99.90;;;;;;5019515;28;25064;-74
2023/02/20 11:53:22;;;;;;;9.60;3.60;;;10.50;99.90;;;;;;5035794;28;25093;-77
2023/02/20 11:55:49;;;;;;;9.75;3.53;;;10.50;99.90;;;;;;5036533;28;25058;-75
2023/02/20 11:58:25;;;;;;;8.82;2.72;;;10.50;99.90;;;;;;5033195;28;25057;-74
2023/02/20 12:00:53;;;;;;;11.65;3.35;;;10.50;99.90;;;;;;5033191;28;25067;-75
2023/02/20 12:03:28;;;;;;;11.65;4.13;;;10.50;99.90;;;;;;5037938;28;25042;-74
2023/02/20 12:05:54;;;;;;;6.70;2.97;;;10.60;99.90;;;;;;5035855;28;25070;-75
2023/02/20 12:08:38;;;;;;;8.60;3.15;;;10.60;99.90;;;;;;5035873;28;25067;-76
2023/02/20 12:11:14;;;;;;;10.65;3.60;;;10.60;99.90;;;;;;5030902;28;25073;-76
2023/02/20 12:13:50;;;;;;;11.15;4.00;;;10.50;99.90;;;;;;5034223;28;25062;-77
2023/02/20 12:16:29;;;;;;;18.05;4.43;;;10.50;99.90;;;;;;5021036;28;25100;-75
2023/02/20 12:19:08;;;;;;;8.10;2.67;;;10.50;99.90;;;;;;5034746;28;25073;-78
2023/02/20 12:21:44;;;;;;;7.57;3.50;;;10.50;99.90;;;;;;5041617;28;25091;-75
2023/02/20 12:24:15;;;;;;;6.63;2.97;;;10.50;99.90;;;;;;5047729;28;25064;-78
2023/02/20 12:26:52;;;;;;;9.77;2.90;;;10.50;99.90;;;;;;5036927;28;25093;-76
2023/02/20 12:29:39;;;;;;;7.80;4.55;;;10.50;99.90;;;;;;5050268;28;25069;-76
2023/02/20 12:32:36;;;;;;;11.65;3.05;;;10.50;99.90;;;;;;5020518;28;25091;-74
2023/02/20 12:35:14;;;;;;;6.22;3.40;;;10.50;99.90;;;;;;5040862;28;25058;-75
2023/02/20 12:38:17;;;;;;;11.20;3.85;;;10.60;99.90;;;;;;5051353;28;25100;-78
2023/02/20 12:41:02;;;;;;;13.63;3.10;;;10.50;99.90;;;;;;5050476;28;25044;-74
2023/02/20 12:43:31;;;;;;;9.27;3.47;;;10.40;99.90;;;;;;5037945;28;25070;-75
2023/02/20 12:46:09;;;;;;;11.77;4.60;;;10.40;99.90;;;;;;5036825;28;25068;-76
2023/02/20 12:48:58;;;;;;;8.10;4.45;;;10.40;99.90;;;;;;5024675;28;25084;-75
2023/02/20 12:51:57;;;;;;;10.25;3.58;;;10.50;99.90;;;;;;5010306;28;25096;-74
2023/02/20 12:54:38;;;;;;;11.68;2.90;;;10.50;99.90;;;;;;5015337;28;25049;-77
2023/02/20 12:57:22;;;;;;;7.05;2.60;;;10.50;99.90;;;;;;5021684;28;25075;-76
2023/02/20 13:00:14;;;;;;;12.00;3.60;;;10.50;99.90;;;;;;5012901;28;25134;-75
2023/02/20 13:02:54;;;;;;;12.67;4.80;;;10.50;99.90;;;;;;5010480;28;25080;-75
2023/02/20 13:05:24;;;;;;;11.75;4.38;;;10.40;99.90;;;;;;5012808;28;25087;-76
2023/02/20 13:07:52;;;;;;;8.32;3.13;;;10.40;99.90;;;;;;5016189;28;25057;-77
2023/02/20 13:10:31;;;;;;;11.55;3.38;;;10.30;99.90;;;;;;5013396;28;25076;-76
2023/02/20 13:12:57;;;;;;;7.75;3.97;;;10.30;99.90;;;;;;5023392;28;25079;-75